Time;durP1;ratioP1;P1;durP2;ratioP2;P2;SDS_P1;SDS_P2;PMS_P1;PMS_P2;Temp;Humidity;BMP_temperature;BMP_pressure;BME280_temperature;BME280_humidity;BME280_pressure;Samples;Min_cycle;Max_cycle;Signal;HPM_P1;HPM_P2
2021/03/04 00:00:12;;;;;;;;;;;;;;;29.70;48.66;101296.47;4999293;28;66257;-39
2021/03/04 00:02:41;;;;;;;;;;;;;;;29.64;49.36;101295.41;5007136;28;69862;-40
2021/03/04 00:05:15;;;;;;;;;;;;;;;29.63;51.67;101301.84;4999067;28;66609;-41
2021/03/04 00:07:44;;;;;;;;;;;;;;;29.65;51.31;101305.19;5007205;28;69878;-39
2021/03/04 00:10:17;;;;;;;;;;;;;;;29.82;50.73;101311.91;5002405;28;66400;-40
2021/03/04 00:12:46;;;;;;;;;;;;;;;29.83;51.67;101316.25;5003451;28;69477;-40
2021/03/04 00:15:19;;;;;;;;;;;;;;;29.87;51.65;101313.19;5002828;28;65426;-39
2021/03/04 00:17:48;;;;;;;;;;;;;;;29.81;53.00;101321.06;5019478;28;70038;-39
2021/03/04 00:20:24;;;;;;;;;;;;;;;29.94;52.47;101324.84;5006219;28;66730;-41
2021/03/04 00:22:53;;;;;;;;;;;;;;;29.90;53.57;101332.53;5002998;28;70801;-40
2021/03/04 00:25:23;;;;;;;;;;;;;;;29.96;52.45;101328.19;5002713;28;66363;-38
2021/03/04 00:27:52;;;;;;;;;;;;;;;29.98;53.38;101331.53;5015836;28;69902;-36
2021/03/04 00:30:22;;;;;;;;;;;;;;;30.04;53.21;101328.00;5004191;28;65332;-40
2021/03/04 00:32:51;;;;;;;;;;;;;;;29.99;54.54;101344.00;4999756;28;70453;-40
2021/03/04 00:35:21;;;;;;;;;;;;;;;29.95;53.58;101338.19;5001788;28;66548;-39
2021/03/04 00:37:49;;;;;;;;;;;;;;;29.94;53.70;101343.78;5010403;28;70064;-39
2021/03/04 00:40:20;;;;;;;;;;;;;;;29.95;53.59;101350.84;5013967;28;66597;-39
2021/03/04 00:42:49;;;;;;;;;;;;;;;30.05;52.61;101346.72;5004740;28;71340;-40
2021/03/04 00:45:22;;;;;;;;;;;;;;;30.04;53.05;101352.34;5036076;28;66077;-39
2021/03/04 00:48:12;;;;;;;;;;;;;;;30.11;53.12;101355.88;4996602;28;70563;-40
2021/03/04 00:50:42;;;;;;;;;;;;;;;30.11;53.41;101358.59;5003538;28;67027;-41
2021/03/04 00:53:11;;;;;;;;;;;;;;;30.06;54.51;101356.53;5009785;28;70030;-40
2021/03/04 00:55:40;;;;;;;;;;;;;;;30.10;53.10;101361.53;5033783;28;66365;-40
2021/03/04 00:58:10;;;;;;;;;;;;;;;30.10;53.67;101361.53;4993267;28;69730;-40
2021/03/04 01:00:39;;;;;;;;;;;;;;;30.10;53.77;101365.06;5005597;28;66147;-41
2021/03/04 01:03:09;;;;;;;;;;;;;;;30.12;53.24;101357.56;5005736;28;70028;-40
2021/03/04 01:05:38;;;;;;;;;;;;;;;30.11;53.27;101358.59;5003939;28;65489;-40
2021/03/04 01:08:07;;;;;;;;;;;;;;;30.18;53.45;101359.47;5004191;28;69395;-41
2021/03/04 01:10:37;;;;;;;;;;;;;;;30.16;53.39;101364.22;5002747;28;66063;-43
2021/03/04 01:13:07;;;;;;;;;;;;;;;30.21;52.92;101364.47;5002242;28;69860;-39
2021/03/04 01:15:36;;;;;;;;;;;;;;;30.17;53.60;101368.63;5007390;28;65575;-39
2021/03/04 01:18:13;;;;;;;;;;;;;;;30.27;53.09;101369.09;5002126;28;69565;-40
2021/03/04 01:20:42;;;;;;;;;;;;;;;30.24;53.99;101368.66;5019022;28;65944;-37
2021/03/04 01:23:11;;;;;;;;;;;;;;;30.28;53.62;101373.47;5003994;28;68887;-36
2021/03/04 01:25:40;;;;;;;;;;;;;;;30.38;52.48;101370.34;5001322;28;65239;-37
2021/03/04 01:28:10;;;;;;;;;;;;;;;30.42;52.93;101376.19;5003671;28;69747;-37
2021/03/04 01:30:38;;;;;;;;;;;;;;;30.46;52.08;101377.47;5000301;28;66088;-37
2021/03/04 01:33:18;;;;;;;;;;;;;;;30.48;52.29;101370.81;5018434;28;69659;-37
2021/03/04 01:35:47;;;;;;;;;;;;;;;30.50;51.63;101373.28;5000446;28;65462;-37
2021/03/04 01:38:18;;;;;;;;;;;;;;;30.51;51.70;101369.56;5014007;28;69293;-36
2021/03/04 01:40:46;;;;;;;;;;;;;;;30.51;51.56;101369.56;5001198;28;66144;-37
2021/03/04 01:43:15;;;;;;;;;;;;;;;30.49;52.22;101374.34;4997136;28;70282;-38
2021/03/04 01:45:44;;;;;;;;;;;;;;;30.50;51.49;101376.81;5006001;28;66868;-37
2021/03/04 01:48:14;;;;;;;;;;;;;;;30.54;51.69;101371.84;4998271;28;70803;-37
2021/03/04 01:50:43;;;;;;;;;;;;;;;30.47;52.03;101379.13;5006431;28;66365;-38
2021/03/04 01:53:12;;;;;;;;;;;;;;;30.41;51.77;101380.78;5006731;28;69409;-38
2021/03/04 01:55:41;;;;;;;;;;;;;;;30.53;51.24;101383.69;4997126;28;66139;-37
2021/03/04 01:58:10;;;;;;;;;;;;;;;30.57;51.35;101382.25;4999378;28;68762;-38
2021/03/04 02:00:39;;;;;;;;;;;;;;;30.59;51.25;101382.91;5003733;28;66179;-36
2021/03/04 02:03:11;;;;;;;;;;;;;;;30.61;51.14;101388.09;5003001;28;69848;-37
2021/03/04 02:05:42;;;;;;;;;;;;;;;30.63;50.62;101389.56;5003175;28;66590;-38
2021/03/04 02:08:24;;;;;;;;;;;;;;;30.64;50.30;101380.38;5000756;28;71670;-37
2021/03/04 02:11:05;;;;;;;;;;;;;;;30.63;51.01;101376.00;4999027;28;65507;-37
2021/03/04 02:13:41;;;;;;;;;;;;;;;30.65;50.45;101382.06;4996555;28;70634;-36
2021/03/04 02:16:28;;;;;;;;;;;;;;;30.65;50.85;101379.34;4997591;28;66958;-38
2021/03/04 02:19:44;;;;;;;;;;;;;;;30.68;50.54;101386.25;5004798;28;69318;-37
2021/03/04 02:22:22;;;;;;;;;;;;;;;30.65;50.22;101392.06;5010428;28;65641;-38
2021/03/04 02:25:00;;;;;;;;;;;;;;;30.73;50.25;101390.00;5009673;28;69882;-42
2021/03/04 02:27:30;;;;;;;;;;;;;;;30.73;50.41;101387.28;4997124;28;66237;-37
2021/03/04 02:30:05;;;;;;;;;;;;;;;30.72;50.45;101382.88;5004992;28;69672;-38
2021/03/04 02:32:37;;;;;;;;;;;;;;;30.68;50.13;101387.06;4991449;28;66146;-39
2021/03/04 02:35:09;;;;;;;;;;;;;;;30.76;50.19;101387.88;5004000;28;69713;-36
2021/03/04 02:37:40;;;;;;;;;;;;;;;30.80;50.12;101379.19;4994070;28;65416;-38
2021/03/04 02:40:10;;;;;;;;;;;;;;;30.86;49.55;101378.34;5008337;28;70615;-37
2021/03/04 02:42:41;;;;;;;;;;;;;;;30.88;49.36;101375.44;5005083;28;66363;-38
2021/03/04 02:45:11;;;;;;;;;;;;;;;30.93;49.25;101381.06;5000777;28;70342;-36
2021/03/04 02:47:40;;;;;;;;;;;;;;;30.93;49.19;101383.78;5008117;28;67494;-39
2021/03/04 02:50:10;;;;;;;;;;;;;;;30.97;49.52;101379.59;5003122;28;69098;-38
2021/03/04 02:52:39;;;;;;;;;;;;;;;30.94;49.16;101370.00;5007086;28;66327;-36
2021/03/04 02:55:09;;;;;;;;;;;;;;;31.02;49.06;101366.25;4996683;28;70623;-39
2021/03/04 02:57:39;;;;;;;;;;;;;;;31.05;49.25;101371.25;4994751;28;66289;-39
2021/03/04 03:00:09;;;;;;;;;;;;;;;31.06;48.73;101362.06;5001073;28;69793;-38
2021/03/04 03:02:39;;;;;;;;;;;;;;;31.07;48.88;101363.75;5002104;28;66398;-37
2021/03/04 03:05:10;;;;;;;;;;;;;;;31.11;49.04;101358.75;5003973;28;70016;-39
2021/03/04 03:07:41;;;;;;;;;;;;;;;31.13;48.32;101362.09;4997648;28;65991;-36
2021/03/04 03:10:35;;;;;;;;;;;;;;;31.20;48.25;101353.94;5006419;28;70538;-37
2021/03/04 03:13:06;;;;;;;;;;;;;;;31.22;48.11;101354.56;4997220;28;66770;-40
2021/03/04 03:15:35;;;;;;;;;;;;;;;31.24;48.59;101347.06;5013599;28;70104;-38
2021/03/04 03:18:05;;;;;;;;;;;;;;;31.25;48.19;101340.59;5014301;28;66189;-39
2021/03/04 03:20:35;;;;;;;;;;;;;;;31.26;48.08;101340.38;4993124;28;70293;-38
2021/03/04 03:23:04;;;;;;;;;;;;;;;31.29;47.95;101339.13;4992575;28;65626;-38
2021/03/04 03:25:34;;;;;;;;;;;;;;;31.34;47.99;101331.16;4996699;28;69945;-39
2021/03/04 03:28:03;;;;;;;;;;;;;;;31.35;48.01;101333.69;4996724;28;66153;-42
2021/03/04 03:30:33;;;;;;;;;;;;;;;31.40;48.20;101324.94;4996603;28;68697;-39
2021/03/04 03:33:04;;;;;;;;;;;;;;;31.40;47.57;101324.94;4996873;28;66359;-40
2021/03/04 03:35:34;;;;;;;;;;;;;;;31.43;47.51;101318.28;4993050;28;69089;-38
2021/03/04 03:38:03;;;;;;;;;;;;;;;31.47;47.67;101324.91;4995992;28;66172;-39
2021/03/04 03:40:33;;;;;;;;;;;;;;;31.47;47.98;101314.91;4992824;28;69901;-43
2021/03/04 03:43:13;;;;;;;;;;;;;;;31.48;47.35;101313.88;4997303;28;66806;-39
2021/03/04 03:45:47;;;;;;;;;;;;;;;31.53;47.80;101307.78;4994317;28;70140;-38
2021/03/04 03:48:18;;;;;;;;;;;;;;;31.55;47.80;101301.09;4998484;28;66126;-38
2021/03/04 03:50:51;;;;;;;;;;;;;;;31.56;47.40;101286.47;4994113;28;70270;-39
2021/03/04 03:53:21;;;;;;;;;;;;;;;31.61;47.04;101286.69;4999304;28;65332;-38
2021/03/04 03:55:54;;;;;;;;;;;;;;;31.62;47.45;101276.66;4997459;28;69248;-38
2021/03/04 03:58:24;;;;;;;;;;;;;;;31.64;47.57;101271.03;4989207;28;66013;-39
2021/03/04 04:00:55;;;;;;;;;;;;;;;31.65;46.89;101269.97;4999992;28;69731;-39
2021/03/04 04:03:24;;;;;;;;;;;;;;;31.68;47.39;101269.53;5000395;28;66269;-39
2021/03/04 04:05:54;;;;;;;;;;;;;;;31.72;47.23;101268.88;4997434;28;69829;-40
2021/03/04 04:08:28;;;;;;;;;;;;;;;31.75;46.97;101257.59;4998338;28;66473;-39
2021/03/04 04:10:56;;;;;;;;;;;;;;;31.76;47.11;101250.28;4997579;28;69997;-40
2021/03/04 04:13:25;;;;;;;;;;;;;;;31.80;46.50;101243.41;4997983;28;64423;-39
2021/03/04 04:15:59;;;;;;;;;;;;;;;31.81;46.61;101239.63;4997214;28;70449;-39
2021/03/04 04:18:29;;;;;;;;;;;;;;;31.86;46.58;101237.09;4998229;28;66810;-37
2021/03/04 04:20:58;;;;;;;;;;;;;;;31.87;46.71;101233.31;4995451;28;71279;-40
2021/03/04 04:23:28;;;;;;;;;;;;;;;31.90;46.79;101222.06;4998920;28;66226;-39
2021/03/04 04:25:58;;;;;;;;;;;;;;;31.92;46.69;101219.16;4994714;28;69803;-38
2021/03/04 04:28:27;;;;;;;;;;;;;;;31.97;46.64;101216.59;5027314;28;65046;-40
2021/03/04 04:30:56;;;;;;;;;;;;;;;31.96;46.65;101220.38;4997549;28;70221;-40
2021/03/04 04:33:25;;;;;;;;;;;;;;;31.99;46.32;101209.91;4999981;28;65397;-43
2021/03/04 04:35:54;;;;;;;;;;;;;;;32.02;46.28;101201.31;4993801;28;70057;-39
2021/03/04 04:38:23;;;;;;;;;;;;;;;32.09;46.46;101197.72;4995259;28;66613;-40
2021/03/04 04:40:52;;;;;;;;;;;;;;;32.07;46.02;101184.41;4996155;28;70153;-41
2021/03/04 04:43:21;;;;;;;;;;;;;;;32.11;46.50;101182.06;4997513;28;65308;-40
2021/03/04 04:45:50;;;;;;;;;;;;;;;32.13;46.64;101179.97;4994800;28;69487;-42
2021/03/04 04:48:20;;;;;;;;;;;;;;;32.16;45.95;101171.38;4998876;28;65578;-39
2021/03/04 04:51:09;;;;;;;;;;;;;;;32.16;46.12;101174.91;4997570;28;69110;-40
2021/03/04 04:53:39;;;;;;;;;;;;;;;32.23;45.93;101162.13;4998071;28;66275;-43
2021/03/04 04:56:08;;;;;;;;;;;;;;;32.26;46.11;101156.25;4995075;28;70348;-40
2021/03/04 04:58:40;;;;;;;;;;;;;;;32.27;45.57;101162.50;4996504;28;66277;-41
2021/03/04 05:01:09;;;;;;;;;;;;;;;32.31;45.74;101146.59;4991947;28;70095;-41
2021/03/04 05:03:39;;;;;;;;;;;;;;;32.34;45.67;101141.53;5010715;28;67308;-41
2021/03/04 05:06:08;;;;;;;;;;;;;;;32.33;45.46;101133.63;4998385;28;69336;-39
2021/03/04 05:08:37;;;;;;;;;;;;;;;32.36;45.75;101128.56;4997976;28;66225;-39
2021/03/04 05:11:05;;;;;;;;;;;;;;;32.40;45.55;101124.38;5013008;28;69837;-40
2021/03/04 05:13:34;;;;;;;;;;;;;;;32.42;45.77;101124.94;4994846;28;65348;-39
2021/03/04 05:16:03;;;;;;;;;;;;;;;32.45;45.83;101121.78;5014876;28;70394;-40
2021/03/04 05:18:34;;;;;;;;;;;;;;;32.42;45.82;101116.81;4993687;28;66917;-41
2021/03/04 05:21:04;;;;;;;;;;;;;;;32.48;45.28;101115.09;4995907;28;69508;-40
2021/03/04 05:23:33;;;;;;;;;;;;;;;32.46;45.43;101106.38;4998528;28;66618;-40
2021/03/04 05:26:02;;;;;;;;;;;;;;;32.53;45.66;101106.28;4997558;28;69661;-39
2021/03/04 05:28:31;;;;;;;;;;;;;;;32.57;45.26;101093.91;4999673;28;65638;-39
2021/03/04 05:31:00;;;;;;;;;;;;;;;32.54;45.53;101095.22;4993520;28;70166;-40
2021/03/04 05:33:29;;;;;;;;;;;;;;;32.52;45.74;101088.34;4997077;28;66099;-37
2021/03/04 05:35:58;;;;;;;;;;;;;;;32.60;45.27;101090.75;4997193;28;69455;-41
2021/03/04 05:38:27;;;;;;;;;;;;;;;32.67;45.24;101086.06;4998332;28;67143;-39
2021/03/04 05:40:56;;;;;;;;;;;;;;;32.68;45.05;101072.28;4999531;28;70312;-39
2021/03/04 05:43:26;;;;;;;;;;;;;;;32.70;45.08;101063.88;5000425;28;66328;-40
2021/03/04 05:45:56;;;;;;;;;;;;;;;32.73;45.35;101071.56;4997532;28;69289;-40
2021/03/04 05:48:28;;;;;;;;;;;;;;;32.77;44.95;101056.47;4997620;28;66566;-40
2021/03/04 05:50:58;;;;;;;;;;;;;;;32.81;45.10;101063.09;4997264;28;68728;-40
2021/03/04 05:53:28;;;;;;;;;;;;;;;32.76;45.01;101046.66;4997942;28;66175;-39
2021/03/04 05:55:58;;;;;;;;;;;;;;;32.82;44.81;101045.75;4995512;28;70114;-39
2021/03/04 05:58:27;;;;;;;;;;;;;;;32.85;44.60;101045.31;4998179;28;65506;-39
2021/03/04 06:00:58;;;;;;;;;;;;;;;32.87;44.76;101037.72;4996915;28;70173;-40
2021/03/04 06:03:28;;;;;;;;;;;;;;;32.92;44.71;101040.59;4997006;28;65146;-43
2021/03/04 06:05:57;;;;;;;;;;;;;;;32.96;44.63;101034.69;4995437;28;70242;-40
2021/03/04 06:08:26;;;;;;;;;;;;;;;32.96;44.51;101029.25;4997147;28;66110;-39
2021/03/04 06:10:55;;;;;;;;;;;;;;;33.02;44.37;101022.94;4993968;28;71173;-40
2021/03/04 06:13:26;;;;;;;;;;;;;;;33.05;44.82;101022.47;4999500;28;65884;-39
2021/03/04 06:15:55;;;;;;;;;;;;;;;33.04;44.44;101015.38;5012759;28;69213;-40
2021/03/04 06:18:24;;;;;;;;;;;;;;;32.96;44.47;100989.34;4995628;28;65459;-39
2021/03/04 06:20:53;;;;;;;;;;;;;;;33.08;44.55;101006.53;4995170;28;71055;-40
2021/03/04 06:23:30;;;;;;;;;;;;;;;33.18;44.37;101002.41;4999091;28;66243;-39
2021/03/04 06:25:59;;;;;;;;;;;;;;;33.17;44.29;100998.88;4997636;28;69200;-40
2021/03/04 06:28:31;;;;;;;;;;;;;;;33.17;44.48;100988.00;4995503;28;66117;-39
2021/03/04 06:31:00;;;;;;;;;;;;;;;33.21;44.33;100989.19;4998463;28;70254;-39
2021/03/04 06:33:36;;;;;;;;;;;;;;;33.26;44.26;100992.00;4997099;28;65522;-40
2021/03/04 06:36:12;;;;;;;;;;;;;;;33.29;44.21;100991.56;4995803;28;69873;-39
2021/03/04 06:38:41;;;;;;;;;;;;;;;33.35;44.10;100974.31;4997216;28;66254;-41
2021/03/04 06:41:20;;;;;;;;;;;;;;;33.41;43.98;100980.72;4996038;28;69194;-41
2021/03/04 06:44:01;;;;;;;;;;;;;;;33.45;43.92;100972.91;4993524;28;65206;-40
2021/03/04 06:46:44;;;;;;;;;;;;;;;33.46;43.76;100969.09;4993067;28;69868;-40
2021/03/04 06:49:14;;;;;;;;;;;;;;;33.49;43.94;100958.59;4996661;28;66155;-40
2021/03/04 06:51:43;;;;;;;;;;;;;;;33.55;43.90;100954.13;4995988;28;69429;-40
2021/03/04 06:54:22;;;;;;;;;;;;;;;33.58;43.64;100956.38;4995940;28;66208;-41
2021/03/04 06:56:51;;;;;;;;;;;;;;;33.63;43.76;100947.50;4994358;28;69932;-40
2021/03/04 06:59:20;;;;;;;;;;;;;;;33.57;43.71;100946.53;4994828;28;66833;-39
2021/03/04 07:01:50;;;;;;;;;;;;;;;33.68;43.50;100934.00;4993654;28;69222;-38
2021/03/04 07:04:19;;;;;;;;;;;;;;;33.71;43.59;100934.38;5028473;28;65252;-38
2021/03/04 07:06:49;;;;;;;;;;;;;;;33.76;43.73;100929.03;4993918;28;69926;-39
2021/03/04 07:09:20;;;;;;;;;;;;;;;33.86;43.28;100935.78;4996730;28;66475;-40
2021/03/04 07:11:50;;;;;;;;;;;;;;;33.86;43.44;100924.88;4993154;28;70779;-39
2021/03/04 07:14:20;;;;;;;;;;;;;;;33.95;43.31;100923.44;4996481;28;65874;-40
2021/03/04 07:16:50;;;;;;;;;;;;;;;33.95;43.40;100912.56;4996275;28;70733;-39
2021/03/04 07:19:20;;;;;;;;;;;;;;;34.02;43.21;100907.81;4997390;28;65307;-41
2021/03/04 07:21:51;;;;;;;;;;;;;;;34.01;43.16;100911.59;4997221;28;71408;-39
2021/03/04 07:24:21;;;;;;;;;;;;;;;34.07;42.99;100907.09;4997162;28;65626;-39
2021/03/04 07:26:50;;;;;;;;;;;;;;;34.10;42.76;100909.34;4995339;28;70292;-38
2021/03/04 07:29:21;;;;;;;;;;;;;;;34.17;42.97;100905.41;4994557;28;66030;-39
2021/03/04 07:31:50;;;;;;;;;;;;;;;34.23;42.96;100893.53;4993294;28;69873;-37
2021/03/04 07:34:20;;;;;;;;;;;;;;;34.23;43.08;100893.53;4996213;28;65449;-39
2021/03/04 07:36:51;;;;;;;;;;;;;;;34.35;42.82;100898.13;4996875;28;69965;-39
2021/03/04 07:39:28;;;;;;;;;;;;;;;34.38;42.50;100889.44;4995358;28;67058;-38
2021/03/04 07:41:57;;;;;;;;;;;;;;;34.42;42.60;100893.34;4994121;28;70001;-39
2021/03/04 07:44:27;;;;;;;;;;;;;;;34.43;42.42;100881.38;4998053;28;65938;-38
2021/03/04 07:46:58;;;;;;;;;;;;;;;34.50;42.27;100882.06;4994143;28;69348;-40
2021/03/04 07:49:39;;;;;;;;;;;;;;;34.51;42.26;100888.34;4994440;28;66260;-39
2021/03/04 07:52:11;;;;;;;;;;;;;;;34.62;42.43;100891.03;4995857;28;69906;-39
2021/03/04 07:54:42;;;;;;;;;;;;;;;34.48;42.08;100867.84;4997048;28;66767;-39
2021/03/04 07:57:12;;;;;;;;;;;;;;;34.66;42.24;100881.28;4995698;28;70130;-40
2021/03/04 07:59:54;;;;;;;;;;;;;;;34.67;42.02;100882.94;4995674;28;66140;-44
2021/03/04 08:02:27;;;;;;;;;;;;;;;34.67;41.92;100880.22;4996155;28;69763;-38
2021/03/04 08:05:16;;;;;;;;;;;;;;;34.78;41.94;100867.59;4992772;28;66858;-38
2021/03/04 08:07:46;;;;;;;;;;;;;;;34.79;42.19;100879.31;4997214;28;70288;-37
2021/03/04 08:10:19;;;;;;;;;;;;;;;34.85;41.68;100879.16;4994360;28;66199;-39
2021/03/04 08:12:52;;;;;;;;;;;;;;;34.87;41.94;100873.44;4996616;28;70078;-39
2021/03/04 08:15:22;;;;;;;;;;;;;;;34.93;41.85;100869.72;4997076;28;66310;-39
2021/03/04 08:17:51;;;;;;;;;;;;;;;34.95;41.72;100873.03;4995304;28;70406;-40
2021/03/04 08:20:20;;;;;;;;;;;;;;;35.00;41.88;100858.69;5009479;28;65580;-38
2021/03/04 08:22:50;;;;;;;;;;;;;;;35.06;41.80;100869.44;4989216;28;70537;-37
2021/03/04 08:25:23;;;;;;;;;;;;;;;35.16;41.56;100866.03;4995121;28;65529;-38
2021/03/04 08:27:54;;;;;;;;;;;;;;;35.17;41.58;100869.59;4995058;28;69850;-39
2021/03/04 08:30:29;;;;;;;;;;;;;;;35.25;41.60;100861.00;4997326;28;66275;-39
2021/03/04 08:33:02;;;;;;;;;;;;;;;35.33;41.53;100857.84;4992361;28;70041;-40
2021/03/04 08:35:47;;;;;;;;;;;;;;;35.28;41.02;100863.22;4988978;28;66541;-39
2021/03/04 08:38:20;;;;;;;;;;;;;;;35.28;41.03;100866.75;4989020;28;69055;-38
2021/03/04 08:40:54;;;;;;;;;;;;;;;35.35;41.05;100864.69;4995306;28;65210;-39
2021/03/04 08:43:23;;;;;;;;;;;;;;;35.45;41.00;100864.00;4998486;28;69830;-39
2021/03/04 08:45:52;;;;;;;;;;;;;;;35.52;40.88;100877.44;4995958;28;65999;-39
2021/03/04 08:48:22;;;;;;;;;;;;;;;35.48;41.12;100868.94;4992171;28;69424;-39
2021/03/04 08:50:53;;;;;;;;;;;;;;;35.53;40.76;100873.66;4998155;28;66193;-40
2021/03/04 08:53:25;;;;;;;;;;;;;;;35.64;40.95;100870.00;4999026;28;70744;-38
2021/03/04 08:55:57;;;;;;;;;;;;;;;35.66;40.54;100861.53;4998903;28;66970;-37
2021/03/04 08:58:30;;;;;;;;;;;;;;;35.73;40.36;100867.66;4998715;28;70530;-38
2021/03/04 09:01:01;;;;;;;;;;;;;;;35.85;40.79;100867.50;5003073;28;66159;-38
2021/03/04 09:03:38;;;;;;;;;;;;;;;35.79;40.09;100867.44;4998191;28;70658;-39
2021/03/04 09:06:10;;;;;;;;;;;;;;;35.74;40.50;100867.38;4999666;28;65960;-37
2021/03/04 09:08:41;;;;;;;;;;;;;;;35.87;40.32;100863.44;4996707;28;69455;-40
2021/03/04 09:11:30;;;;;;;;;;;;;;;35.96;40.07;100867.38;4994353;28;66774;-38
2021/03/04 09:14:03;;;;;;;;;;;;;;;35.99;40.13;100866.84;4995747;28;69971;-38
2021/03/04 09:16:39;;;;;;;;;;;;;;;36.01;40.00;100870.16;4997501;28;65959;-38
2021/03/04 09:19:08;;;;;;;;;;;;;;;36.08;40.00;100877.34;4999266;28;69954;-38
2021/03/04 09:21:37;;;;;;;;;;;;;;;36.10;39.46;100873.28;4998660;28;67228;-39
2021/03/04 09:24:09;;;;;;;;;;;;;;;36.18;40.00;100885.66;4997428;28;69947;-38
2021/03/04 09:26:39;;;;;;;;;;;;;;;36.27;39.58;100889.56;4996633;28;66960;-38
2021/03/04 09:29:08;;;;;;;;;;;;;;;36.24;39.52;100892.81;4997578;28;70700;-40
2021/03/04 09:31:47;;;;;;;;;;;;;;;36.30;39.55;100890.97;4999411;28;66107;-38
2021/03/04 09:34:17;;;;;;;;;;;;;;;36.38;39.23;100894.06;4995878;28;70228;-39
2021/03/04 09:36:46;;;;;;;;;;;;;;;36.35;39.41;100891.84;5002032;28;66964;-39
2021/03/04 09:39:15;;;;;;;;;;;;;;;36.44;39.55;100901.25;4996190;28;70396;-37
2021/03/04 09:41:52;;;;;;;;;;;;;;;36.38;39.54;100893.25;4998292;28;66275;-38
2021/03/04 09:44:21;;;;;;;;;;;;;;;36.50;39.05;100898.53;4999171;28;69085;-38
2021/03/04 09:46:50;;;;;;;;;;;;;;;36.53;39.17;100903.53;5001599;28;64686;-38
2021/03/04 09:49:20;;;;;;;;;;;;;;;36.44;38.76;100894.94;4997892;28;69701;-38
2021/03/04 09:51:49;;;;;;;;;;;;;;;36.45;38.66;100902.06;4995772;28;66270;-39
2021/03/04 09:54:25;;;;;;;;;;;;;;;36.46;39.10;100903.72;4994273;28;69927;-39
2021/03/04 09:57:04;;;;;;;;;;;;;;;36.42;38.83;100908.06;4997516;28;66665;-38
2021/03/04 09:59:43;;;;;;;;;;;;;;;36.39;39.06;100909.38;4995536;28;70780;-39
2021/03/04 10:02:12;;;;;;;;;;;;;;;36.37;38.81;100911.53;4996600;28;66061;-38
2021/03/04 10:05:10;;;;;;;;;;;;;;;36.50;39.13;100906.75;4998446;28;70009;-39
2021/03/04 10:07:39;;;;;;;;;;;;;;;36.47;38.93;100911.66;4996842;28;66985;-37
2021/03/04 10:10:12;;;;;;;;;;;;;;;36.47;39.06;100916.31;4999867;28;42989;-39
2021/03/04 10:12:51;;;;;;;;;;;;;;;36.40;38.69;100916.50;4994879;28;66579;-39
2021/03/04 10:15:28;;;;;;;;;;;;;;;36.43;39.25;100912.41;4994708;28;70028;-37
2021/03/04 10:17:57;;;;;;;;;;;;;;;36.47;38.93;100919.84;4993537;28;65648;-38
2021/03/04 10:20:27;;;;;;;;;;;;;;;36.03;39.98;100917.16;4982882;28;71021;-38
2021/03/04 10:22:56;;;;;;;;;;;;;;;35.75;41.29;100915.44;4993857;28;65240;-38
2021/03/04 10:25:25;;;;;;;;;;;;;;;35.61;41.99;100918.78;5026267;28;71237;-38
2021/03/04 10:27:55;;;;;;;;;;;;;;;35.56;42.29;100925.00;4993294;28;65990;-38
2021/03/04 10:30:24;;;;;;;;;;;;;;;35.45;42.54;100921.28;4995259;28;69815;-39
2021/03/04 10:32:54;;;;;;;;;;;;;;;35.44;42.45;100936.00;4993295;28;66558;-39
2021/03/04 10:35:24;;;;;;;;;;;;;;;35.42;42.73;100938.13;4993200;28;70239;-38
2021/03/04 10:37:53;;;;;;;;;;;;;;;35.32;43.33;100929.78;4996935;28;66188;-37
2021/03/04 10:40:23;;;;;;;;;;;;;;;35.27;43.18;100932.44;4994827;28;69967;-42
2021/03/04 10:42:51;;;;;;;;;;;;;;;35.27;43.55;100940.63;4992508;28;66659;-37
2021/03/04 10:45:24;;;;;;;;;;;;;;;35.17;44.10;100941.31;5025751;28;68455;-37
2021/03/04 10:47:53;;;;;;;;;;;;;;;35.17;44.44;100948.66;4996047;28;66504;-35
2021/03/04 10:50:23;;;;;;;;;;;;;;;35.13;44.05;100945.59;4993713;28;70739;-40
2021/03/04 10:52:52;;;;;;;;;;;;;;;35.07;45.18;100952.03;4992270;28;66005;-38
2021/03/04 10:55:40;;;;;;;;;;;;;;;35.05;45.23;100944.09;4993463;28;69089;-39
2021/03/04 10:58:09;;;;;;;;;;;;;;;35.04;45.49;100953.31;4996989;28;66644;-40
2021/03/04 11:00:38;;;;;;;;;;;;;;;35.01;45.85;100953.81;4996590;28;71086;-39
2021/03/04 11:03:07;;;;;;;;;;;;;;;34.96;46.31;100951.00;4995542;28;65358;-43
2021/03/04 11:05:37;;;;;;;;;;;;;;;34.93;46.74;100948.78;4997533;28;70419;-40
2021/03/04 11:08:08;;;;;;;;;;;;;;;34.86;46.17;100953.56;4998316;28;65997;-37
2021/03/04 11:10:36;;;;;;;;;;;;;;;34.83;46.96;100962.25;4995368;28;69441;-37
2021/03/04 11:13:06;;;;;;;;;;;;;;;34.84;46.24;100955.72;4993725;28;67202;-38
2021/03/04 11:15:35;;;;;;;;;;;;;;;34.89;46.39;100961.25;4996127;28;69665;-38
2021/03/04 11:18:03;;;;;;;;;;;;;;;34.87;46.13;100963.38;4994426;28;65619;-39
2021/03/04 11:20:33;;;;;;;;;;;;;;;34.84;46.64;100972.06;4990714;28;69817;-38
2021/03/04 11:23:02;;;;;;;;;;;;;;;34.78;44.70;100976.59;4996584;28;65411;-41
2021/03/04 11:25:31;;;;;;;;;;;;;;;34.65;43.71;100972.25;4994039;28;69766;-37
2021/03/04 11:27:59;;;;;;;;;;;;;;;34.50;43.03;100974.69;4996566;28;65396;-37
2021/03/04 11:30:28;;;;;;;;;;;;;;;34.39;41.98;100978.28;4996092;28;70296;-37
2021/03/04 11:32:57;;;;;;;;;;;;;;;34.21;41.24;100988.28;4995485;28;66588;-39
2021/03/04 11:35:27;;;;;;;;;;;;;;;34.17;42.66;100989.81;4997654;28;69284;-37
2021/03/04 11:37:56;;;;;;;;;;;;;;;34.18;43.83;100991.44;4998353;28;66335;-40
2021/03/04 11:40:25;;;;;;;;;;;;;;;34.19;44.22;100990.41;4997428;28;70138;-40
2021/03/04 11:42:54;;;;;;;;;;;;;;;34.28;44.41;100996.28;4996812;28;65527;-39
2021/03/04 11:45:23;;;;;;;;;;;;;;;34.31;44.64;100997.72;4999027;28;69939;-40
2021/03/04 11:47:51;;;;;;;;;;;;;;;34.33;44.85;101001.84;4997683;28;65809;-38
2021/03/04 11:50:20;;;;;;;;;;;;;;;34.34;44.91;101002.69;4992862;28;69146;-40
2021/03/04 11:53:08;;;;;;;;;;;;;;;34.24;45.49;101000.56;4995019;28;65596;-38
2021/03/04 11:55:37;;;;;;;;;;;;;;;34.24;46.10;101003.28;4996151;28;69967;-38
2021/03/04 11:58:06;;;;;;;;;;;;;;;34.30;46.10;101006.94;4996650;28;66596;-40
2021/03/04 12:00:35;;;;;;;;;;;;;;;34.33;45.33;101014.66;4997449;28;69787;-38
2021/03/04 12:03:04;;;;;;;;;;;;;;;34.29;45.39;101016.19;4996338;28;66220;-37
2021/03/04 12:05:33;;;;;;;;;;;;;;;34.28;45.70;101025.44;5001669;28;69392;-38
2021/03/04 12:08:02;;;;;;;;;;;;;;;34.24;45.83;101020.47;4995594;28;66928;-37
2021/03/04 12:10:31;;;;;;;;;;;;;;;34.24;44.71;101027.78;4995404;28;70811;-35
2021/03/04 12:13:00;;;;;;;;;;;;;;;34.21;42.86;101031.84;4997650;28;65578;-36
2021/03/04 12:15:29;;;;;;;;;;;;;;;34.13;42.77;101034.94;5013623;28;69605;-36
2021/03/04 12:18:11;;;;;;;;;;;;;;;34.12;42.15;101052.31;4999342;28;65507;-35
2021/03/04 12:20:40;;;;;;;;;;;;;;;33.99;41.73;101047.94;4998851;28;70480;-35
2021/03/04 12:23:09;;;;;;;;;;;;;;;34.01;41.91;101058.56;5000076;28;66203;-38
2021/03/04 12:25:38;;;;;;;;;;;;;;;33.94;41.91;101057.88;4999080;28;71019;-37
2021/03/04 12:28:07;;;;;;;;;;;;;;;33.91;41.49;101058.34;5000442;28;66006;-35
2021/03/04 12:30:40;;;;;;;;;;;;;;;33.79;41.44;101056.47;4999537;28;70138;-36
2021/03/04 12:33:11;;;;;;;;;;;;;;;33.81;41.60;101059.75;4999866;28;66163;-35
2021/03/04 12:35:41;;;;;;;;;;;;;;;33.76;42.53;101078.66;4999152;28;70792;-37
2021/03/04 12:38:11;;;;;;;;;;;;;;;33.76;42.54;101081.38;5000754;28;66187;-36
2021/03/04 12:40:41;;;;;;;;;;;;;;;33.73;43.02;101084.56;4996377;28;70851;-37
2021/03/04 12:43:10;;;;;;;;;;;;;;;33.78;42.44;101095.59;5000278;28;66292;-38
2021/03/04 12:45:39;;;;;;;;;;;;;;;33.78;42.60;101086.59;5002115;28;69935;-36
2021/03/04 12:48:08;;;;;;;;;;;;;;;33.83;42.58;101104.97;4999438;28;65579;-40
2021/03/04 12:50:40;;;;;;;;;;;;;;;33.74;42.93;101097.13;4995844;28;70454;-36
2021/03/04 12:53:09;;;;;;;;;;;;;;;33.71;43.30;101108.50;5003329;28;65316;-37
2021/03/04 12:55:38;;;;;;;;;;;;;;;33.66;43.32;101100.19;4999534;28;70474;-37